Time;durP1;ratioP1;P1;durP2;ratioP2;P2;SDS_P1;SDS_P2;PMS_P1;PMS_P2;Temp;Humidity;BMP_temperature;BMP_pressure;BME280_temperature;BME280_humidity;BME280_pressure;Samples;Min_cycle;Max_cycle;Signal;HPM_P1;HPM_P2
2023/08/30 00:01:49;;;;;;;4.15;3.47;;;15.10;99.90;;;;;;5015154;28;20503;-47
2023/08/30 00:04:15;;;;;;;5.35;4.15;;;15.10;99.90;;;;;;5014951;28;20099;-47
2023/08/30 00:06:40;;;;;;;3.88;3.47;;;15.10;99.90;;;;;;4997876;28;20116;-51
2023/08/30 00:09:06;;;;;;;4.72;3.72;;;15.10;99.90;;;;;;5014649;28;20025;-52
2023/08/30 00:11:32;;;;;;;5.20;3.63;;;15.10;99.90;;;;;;4998302;28;20029;-48
2023/08/30 00:14:05;;;;;;;6.97;3.90;;;15.10;99.90;;;;;;5013632;28;20068;-50
2023/08/30 00:16:35;;;;;;;7.47;3.53;;;15.10;99.90;;;;;;5032558;28;20025;-48
2023/08/30 00:19:01;;;;;;;7.25;3.88;;;15.10;99.90;;;;;;5014367;28;20025;-48
2023/08/30 00:21:27;;;;;;;4.70;3.85;;;15.10;99.90;;;;;;4997869;28;20504;-53
2023/08/30 00:23:53;;;;;;;5.07;3.80;;;15.10;99.90;;;;;;5032269;28;20070;-50
2023/08/30 00:26:18;;;;;;;3.72;3.42;;;15.10;99.90;;;;;;4998072;28;20501;-48
2023/08/30 00:28:44;;;;;;;5.05;3.38;;;15.10;99.90;;;;;;5014316;28;20120;-48
2023/08/30 00:31:09;;;;;;;4.60;3.80;;;15.10;99.90;;;;;;5013931;28;20485;-50
2023/08/30 00:33:35;;;;;;;4.28;3.83;;;15.10;99.90;;;;;;4997828;28;20017;-51
2023/08/30 00:36:00;;;;;;;5.30;3.85;;;15.10;99.90;;;;;;5032363;28;20026;-48
2023/08/30 00:38:27;;;;;;;4.03;3.72;;;15.10;99.90;;;;;;4997896;28;20021;-49
2023/08/30 00:40:53;;;;;;;7.55;3.83;;;15.10;99.90;;;;;;5013981;28;20025;-46
2023/08/30 00:43:20;;;;;;;8.93;4.43;;;15.10;99.90;;;;;;5014235;28;20021;-46
2023/08/30 00:45:47;;;;;;;5.15;3.35;;;15.10;99.90;;;;;;5014038;28;20075;-49
2023/08/30 00:48:14;;;;;;;5.38;3.95;;;15.10;99.90;;;;;;5013970;28;20052;-48
2023/08/30 00:50:41;;;;;;;5.35;3.75;;;15.10;99.90;;;;;;4998269;28;20438;-46
2023/08/30 00:53:07;;;;;;;3.75;3.45;;;15.10;99.90;;;;;;5031996;28;20389;-46
2023/08/30 00:55:35;;;;;;;5.22;4.13;;;15.10;99.90;;;;;;4997419;28;20037;-46
2023/08/30 00:58:02;;;;;;;4.60;3.63;;;15.10;99.90;;;;;;4981178;28;20124;-50
2023/08/30 01:00:29;;;;;;;5.82;3.78;;;15.10;99.90;;;;;;5014077;28;20034;-50
2023/08/30 01:02:56;;;;;;;7.50;4.20;;;15.20;99.90;;;;;;5013717;28;20030;-51
2023/08/30 01:05:22;;;;;;;6.00;3.83;;;15.30;99.90;;;;;;4997557;28;20057;-47
2023/08/30 01:07:49;;;;;;;6.15;4.57;;;15.20;99.90;;;;;;5013313;28;20412;-49
2023/08/30 01:10:14;;;;;;;4.65;4.25;;;15.10;99.90;;;;;;4997457;28;20092;-48
2023/08/30 01:12:53;;;;;;;4.63;4.10;;;15.10;99.90;;;;;;4997295;28;20396;-47
2023/08/30 01:15:19;;;;;;;6.00;4.85;;;15.10;99.90;;;;;;5013664;28;20033;-48
2023/08/30 01:17:47;;;;;;;7.20;5.70;;;15.20;99.90;;;;;;5013615;28;20047;-49
2023/08/30 01:20:17;;;;;;;10.50;5.15;;;15.20;99.90;;;;;;5013859;28;20036;-47
2023/08/30 01:22:57;;;;;;;7.13;4.47;;;15.20;99.90;;;;;;5013624;28;20057;-46
2023/08/30 01:25:53;;;;;;;6.25;4.65;;;15.20;99.90;;;;;;5013808;28;20043;-48
2023/08/30 01:28:22;;;;;;;5.23;4.73;;;15.10;99.90;;;;;;5002541;28;20397;-47
2023/08/30 01:30:48;;;;;;;8.38;4.40;;;15.10;99.90;;;;;;5017073;28;20284;-47
2023/08/30 01:33:17;;;;;;;6.70;4.70;;;15.00;99.90;;;;;;5017741;28;20026;-47
2023/08/30 01:35:43;;;;;;;7.95;4.72;;;15.10;99.90;;;;;;5017495;28;20029;-49
2023/08/30 01:38:10;;;;;;;5.63;4.50;;;15.00;99.90;;;;;;5017355;28;20408;-49
2023/08/30 01:40:38;;;;;;;7.53;4.57;;;15.00;99.90;;;;;;5017466;28;20027;-50
2023/08/30 01:43:06;;;;;;;8.15;4.95;;;15.10;99.90;;;;;;5017323;28;20507;-51
2023/08/30 01:45:35;;;;;;;4.78;4.40;;;15.10;99.90;;;;;;5034945;28;20104;-49
2023/08/30 01:48:01;;;;;;;7.47;4.85;;;15.10;99.90;;;;;;5001106;28;20442;-47
2023/08/30 01:50:27;;;;;;;7.70;6.13;;;15.00;99.90;;;;;;5035537;28;20033;-47
2023/08/30 01:52:54;;;;;;;7.55;4.90;;;15.00;99.90;;;;;;5000655;28;20064;-48
2023/08/30 01:55:22;;;;;;;10.02;4.95;;;15.00;99.90;;;;;;4984850;28;20025;-46
2023/08/30 01:57:48;;;;;;;8.52;5.57;;;15.00;99.90;;;;;;5000787;28;20116;-50
2023/08/30 02:00:14;;;;;;;5.93;4.95;;;15.10;99.90;;;;;;5017098;28;20092;-48
2023/08/30 02:02:41;;;;;;;5.72;5.05;;;15.10;99.90;;;;;;5000887;28;20034;-46
2023/08/30 02:05:07;;;;;;;9.73;5.85;;;15.10;99.90;;;;;;5017216;28;20021;-47
2023/08/30 02:07:41;;;;;;;6.30;5.70;;;15.10;99.90;;;;;;5017013;28;20032;-45
2023/08/30 02:10:11;;;;;;;6.75;6.10;;;15.10;99.90;;;;;;4997341;28;20057;-47
2023/08/30 02:12:47;;;;;;;6.78;5.50;;;15.10;99.90;;;;;;4980786;28;20029;-48
2023/08/30 02:15:14;;;;;;;9.00;5.70;;;15.00;99.90;;;;;;4997050;28;20100;-47
2023/08/30 02:17:40;;;;;;;7.10;5.82;;;15.00;99.90;;;;;;4993962;28;20021;-46
2023/08/30 02:20:07;;;;;;;12.05;5.35;;;15.10;99.90;;;;;;5015976;28;20037;-46
2023/08/30 02:22:33;;;;;;;7.20;5.90;;;15.20;99.90;;;;;;5034612;28;20029;-46
2023/08/30 02:24:59;;;;;;;12.27;6.72;;;15.10;99.90;;;;;;5000719;28;20037;-45
2023/08/30 02:27:25;;;;;;;9.13;6.60;;;15.10;99.90;;;;;;5016774;28;20026;-47
2023/08/30 02:29:50;;;;;;;8.55;6.82;;;15.10;99.90;;;;;;5016038;28;20446;-45
2023/08/30 02:32:20;;;;;;;7.32;6.60;;;15.00;99.90;;;;;;5016366;28;20022;-46
2023/08/30 02:34:48;;;;;;;7.40;6.70;;;15.00;99.90;;;;;;5033949;28;20642;-45
2023/08/30 02:37:14;;;;;;;7.97;6.90;;;14.90;99.90;;;;;;5015866;28;20137;-46
2023/08/30 02:39:39;;;;;;;7.68;6.32;;;14.90;99.90;;;;;;5015620;28;20501;-46
2023/08/30 02:42:05;;;;;;;10.75;7.35;;;14.90;99.90;;;;;;5016298;28;20013;-47
2023/08/30 02:44:31;;;;;;;7.85;6.60;;;14.90;99.90;;;;;;5016146;28;20440;-46
2023/08/30 02:46:56;;;;;;;13.93;7.07;;;14.90;99.90;;;;;;5033879;28;20053;-46
2023/08/30 02:49:22;;;;;;;7.57;6.82;;;14.90;99.90;;;;;;5015801;28;20029;-48
2023/08/30 02:51:47;;;;;;;8.65;7.15;;;15.00;99.90;;;;;;5015880;28;20025;-47
2023/08/30 02:54:13;;;;;;;8.50;6.68;;;15.00;99.90;;;;;;5033918;28;20109;-46
2023/08/30 02:56:43;;;;;;;11.40;6.85;;;15.00;99.90;;;;;;4983622;28;20396;-47
2023/08/30 02:59:09;;;;;;;7.85;7.15;;;15.00;99.90;;;;;;5015843;28;20057;-45
2023/08/30 03:01:35;;;;;;;10.68;7.38;;;15.00;99.90;;;;;;5015815;28;20026;-47
2023/08/30 03:04:00;;;;;;;7.97;7.18;;;14.90;99.90;;;;;;5033759;28;20340;-47
2023/08/30 03:06:26;;;;;;;8.32;7.35;;;15.00;99.90;;;;;;4999527;28;20064;-48
2023/08/30 03:08:53;;;;;;;8.38;7.05;;;15.00;99.90;;;;;;5015686;28;20400;-48
2023/08/30 03:11:19;;;;;;;7.57;6.88;;;15.00;99.90;;;;;;5015405;28;20048;-49
2023/08/30 03:13:45;;;;;;;11.30;7.85;;;15.00;99.90;;;;;;5033241;28;20035;-46
2023/08/30 03:16:15;;;;;;;8.00;6.78;;;15.00;99.90;;;;;;5033302;28;20033;-46
2023/08/30 03:18:42;;;;;;;11.50;8.63;;;15.00;99.90;;;;;;5015372;28;20021;-46
2023/08/30 03:21:08;;;;;;;9.68;7.15;;;14.90;99.90;;;;;;4999226;28;20025;-46
2023/08/30 03:23:35;;;;;;;8.27;7.57;;;15.00;99.90;;;;;;5015663;28;20029;-45
2023/08/30 03:26:14;;;;;;;9.32;6.93;;;15.00;99.90;;;;;;4999534;28;20112;-45
2023/08/30 03:28:42;;;;;;;8.93;7.57;;;14.90;99.90;;;;;;4996421;28;20087;-47
2023/08/30 03:31:19;;;;;;;8.32;7.38;;;14.90;99.90;;;;;;4995506;28;20482;-46
2023/08/30 03:33:45;;;;;;;8.18;6.97;;;14.90;99.90;;;;;;4995323;28;20547;-46
2023/08/30 03:36:12;;;;;;;8.38;7.38;;;14.90;99.90;;;;;;5013394;28;20025;-46
2023/08/30 03:38:38;;;;;;;7.25;6.55;;;14.90;99.90;;;;;;5004721;28;20025;-45
2023/08/30 03:41:04;;;;;;;8.45;7.65;;;14.90;99.90;;;;;;5014950;28;20025;-46
2023/08/30 03:43:33;;;;;;;8.55;7.03;;;14.90;99.90;;;;;;5014896;28;20025;-47
2023/08/30 03:46:05;;;;;;;15.10;7.40;;;14.90;99.90;;;;;;5015082;28;20029;-46
2023/08/30 03:48:31;;;;;;;9.85;7.65;;;14.80;99.90;;;;;;5014494;28;20068;-46
2023/08/30 03:50:58;;;;;;;8.48;7.50;;;14.90;99.90;;;;;;5014279;28;20030;-45
2023/08/30 03:53:24;;;;;;;7.50;6.75;;;14.90;99.90;;;;;;5014911;28;20068;-49
2023/08/30 03:55:50;;;;;;;9.25;7.63;;;14.80;99.90;;;;;;5032578;28;20025;-47
2023/08/30 03:58:16;;;;;;;7.30;6.57;;;14.80;99.90;;;;;;5032600;28;20026;-45
2023/08/30 04:00:41;;;;;;;9.05;7.30;;;14.80;99.90;;;;;;4998245;28;20026;-47
2023/08/30 04:03:11;;;;;;;10.27;7.75;;;14.80;99.90;;;;;;5014742;28;20136;-47
2023/08/30 04:05:37;;;;;;;8.98;7.38;;;14.70;99.90;;;;;;5014596;28;20044;-47
2023/08/30 04:08:03;;;;;;;14.07;7.40;;;14.80;99.90;;;;;;5014786;28;20037;-46
2023/08/30 04:10:29;;;;;;;9.55;7.40;;;14.70;99.90;;;;;;5014149;28;20099;-45
2023/08/30 04:12:54;;;;;;;8.80;7.00;;;14.80;99.90;;;;;;5014397;28;20018;-48
2023/08/30 04:15:20;;;;;;;6.90;6.30;;;14.70;99.90;;;;;;5014371;28;20033;-47
2023/08/30 04:17:46;;;;;;;7.88;7.10;;;14.70;99.90;;;;;;5014553;28;20120;-49
2023/08/30 04:20:11;;;;;;;7.60;6.68;;;14.70;99.90;;;;;;5013938;28;20037;-46
2023/08/30 04:22:37;;;;;;;7.85;7.13;;;14.70;99.90;;;;;;5031716;28;20041;-46
2023/08/30 04:25:04;;;;;;;12.05;6.75;;;14.80;99.90;;;;;;4997871;28;20073;-46
2023/08/30 04:27:29;;;;;;;8.48;7.68;;;14.80;99.90;;;;;;5014185;28;20381;-48
2023/08/30 04:29:55;;;;;;;10.75;8.45;;;14.80;99.90;;;;;;4994440;28;20028;-50
2023/08/30 04:32:20;;;;;;;10.43;7.65;;;14.70;99.90;;;;;;4994582;28;20022;-48
2023/08/30 04:34:46;;;;;;;12.07;8.02;;;14.70;99.90;;;;;;4994574;28;20061;-46
2023/08/30 04:37:12;;;;;;;9.48;8.02;;;14.80;99.90;;;;;;4994547;28;20117;-45
2023/08/30 04:39:37;;;;;;;9.95;8.93;;;14.60;99.90;;;;;;5009208;28;20033;-46
2023/08/30 04:42:03;;;;;;;12.50;7.80;;;14.70;99.90;;;;;;5014028;28;20025;-46
2023/08/30 04:44:29;;;;;;;9.43;8.50;;;14.60;99.90;;;;;;5031697;28;20497;-45
2023/08/30 04:46:55;;;;;;;10.05;9.05;;;14.60;99.90;;;;;;5013967;28;20072;-49
2023/08/30 04:49:21;;;;;;;11.32;9.45;;;14.60;99.90;;;;;;5013735;28;20393;-46
2023/08/30 04:51:47;;;;;;;9.60;8.70;;;14.60;99.90;;;;;;5013665;28;20030;-47
2023/08/30 04:54:13;;;;;;;12.73;9.77;;;14.60;99.90;;;;;;5013758;28;20025;-48
2023/08/30 04:56:39;;;;;;;10.30;8.70;;;14.70;99.90;;;;;;5031510;23;20050;-55
2023/08/30 04:59:05;;;;;;;9.60;8.60;;;14.60;99.90;;;;;;5010772;28;20026;-52
2023/08/30 05:01:30;;;;;;;12.05;9.73;;;14.60;99.90;;;;;;5010130;28;20064;-49
2023/08/30 05:03:56;;;;;;;9.85;8.85;;;14.70;99.90;;;;;;5010191;28;20083;-48
2023/08/30 05:06:22;;;;;;;10.32;9.30;;;14.70;99.90;;;;;;5010366;28;20518;-51
2023/08/30 05:08:47;;;;;;;14.02;9.18;;;14.70;99.90;;;;;;5010370;28;20030;-49
2023/08/30 05:11:13;;;;;;;11.52;9.93;;;14.70;99.90;;;;;;5010330;28;20317;-48
2023/08/30 05:13:39;;;;;;;10.63;9.52;;;14.70;99.90;;;;;;5010657;28;20097;-50
2023/08/30 05:16:04;;;;;;;12.23;9.45;;;14.80;99.90;;;;;;5010859;28;20026;-50
2023/08/30 05:18:30;;;;;;;12.27;9.40;;;14.80;99.90;;;;;;5011144;28;20037;-48
2023/08/30 05:20:55;;;;;;;11.60;10.50;;;14.80;99.90;;;;;;5011120;28;20045;-53
2023/08/30 05:23:21;;;;;;;12.65;9.65;;;14.80;99.90;;;;;;4994320;28;20052;-49
2023/08/30 05:25:47;;;;;;;11.23;9.63;;;14.80;99.90;;;;;;5011669;28;20029;-49
2023/08/30 05:28:12;;;;;;;10.52;9.40;;;14.90;99.90;;;;;;5009805;28;20124;-51
2023/08/30 05:30:41;;;;;;;12.05;9.65;;;14.90;99.90;;;;;;5010193;28;20026;-48
2023/08/30 05:33:07;;;;;;;13.63;9.85;;;14.90;99.90;;;;;;5011704;28;20033;-53
2023/08/30 05:35:32;;;;;;;11.40;10.30;;;14.90;99.90;;;;;;5010075;28;20022;-52
2023/08/30 05:37:58;;;;;;;12.00;9.68;;;15.00;99.90;;;;;;5011225;28;20030;-53
2023/08/30 05:40:24;;;;;;;12.25;10.05;;;15.00;99.90;;;;;;5010247;28;20026;-52
2023/08/30 05:42:50;;;;;;;12.23;9.45;;;15.10;99.90;;;;;;5011488;28;20065;-49
2023/08/30 05:45:16;;;;;;;11.30;10.18;;;15.10;99.90;;;;;;5010927;28;20062;-49
2023/08/30 05:47:41;;;;;;;13.50;9.07;;;15.10;99.90;;;;;;5011087;28;20030;-47
2023/08/30 05:50:07;;;;;;;10.55;9.48;;;15.20;99.90;;;;;;5010093;28;20054;-55
2023/08/30 05:52:40;;;;;;;12.95;10.82;;;15.20;99.90;;;;;;5010069;28;20022;-52
2023/08/30 05:55:09;;;;;;;15.45;9.85;;;15.20;99.90;;;;;;5010391;28;20053;-49
2023/08/30 05:57:35;;;;;;;13.82;9.98;;;15.30;99.90;;;;;;5009572;28;20034;-51
2023/08/30 06:00:02;;;;;;;11.43;9.57;;;15.40;99.90;;;;;;5010300;28;20041;-52
2023/08/30 06:02:27;;;;;;;10.20;9.10;;;15.40;99.90;;;;;;5010039;28;20034;-55
2023/08/30 06:04:53;;;;;;;10.52;9.52;;;15.40;99.90;;;;;;5010109;28;20405;-53
2023/08/30 06:07:18;;;;;;;14.15;9.85;;;15.60;99.90;;;;;;5009302;28;20022;-52
2023/08/30 06:09:44;;;;;;;13.68;9.40;;;15.60;99.90;;;;;;5009722;28;20042;-50
2023/08/30 06:12:10;;;;;;;11.55;9.32;;;15.70;99.90;;;;;;5010849;28;20026;-51
2023/08/30 06:14:35;;;;;;;10.10;9.10;;;15.80;99.90;;;;;;5013928;28;20383;-50
2023/08/30 06:17:02;;;;;;;9.77;8.88;;;15.80;99.90;;;;;;5014802;28;20486;-50
2023/08/30 06:19:27;;;;;;;10.07;9.10;;;16.00;99.90;;;;;;5013721;28;20026;-50
2023/08/30 06:21:53;;;;;;;10.68;9.70;;;16.00;99.90;;;;;;5013562;28;20026;-48
2023/08/30 06:24:18;;;;;;;11.25;10.10;;;16.10;99.90;;;;;;5013695;28;20026;-48
2023/08/30 06:26:44;;;;;;;10.65;9.38;;;16.10;99.90;;;;;;5013253;28;20025;-54
2023/08/30 06:29:09;;;;;;;9.30;8.40;;;16.30;99.90;;;;;;5013387;28;20049;-49
2023/08/30 06:31:35;;;;;;;9.25;8.38;;;16.20;99.90;;;;;;5014236;28;20037;-48
2023/08/30 06:34:01;;;;;;;9.10;8.18;;;16.30;99.90;;;;;;5013348;28;20057;-53
2023/08/30 06:36:26;;;;;;;9.05;8.15;;;16.50;99.90;;;;;;5012701;28;20022;-53
2023/08/30 06:38:52;;;;;;;9.65;8.45;;;16.50;99.90;;;;;;5013318;28;20029;-51
2023/08/30 06:41:17;;;;;;;10.80;9.15;;;16.70;99.90;;;;;;5012884;28;20065;-48
2023/08/30 06:43:43;;;;;;;9.90;8.90;;;16.70;99.90;;;;;;5012959;28;20030;-55
2023/08/30 06:46:08;;;;;;;10.27;8.68;;;16.90;99.90;;;;;;5012545;28;20037;-49
2023/08/30 06:48:34;;;;;;;8.93;7.85;;;17.00;99.90;;;;;;5012871;28;20100;-53
2023/08/30 06:50:59;;;;;;;11.48;8.20;;;17.10;99.90;;;;;;5012725;28;20033;-51
2023/08/30 06:53:27;;;;;;;11.63;8.32;;;17.20;99.90;;;;;;5013112;28;20393;-48
2023/08/30 06:56:00;;;;;;;9.50;7.93;;;17.30;99.90;;;;;;5012288;28;20779;-52
2023/08/30 06:58:26;;;;;;;8.38;7.63;;;17.50;99.90;;;;;;5012499;28;20030;-49
2023/08/30 07:00:52;;;;;;;8.15;7.13;;;17.80;99.90;;;;;;5012338;28;20088;-51
2023/08/30 07:03:17;;;;;;;8.43;6.93;;;18.20;99.90;;;;;;5012712;28;20032;-49
2023/08/30 07:05:43;;;;;;;7.32;6.63;;;18.60;99.90;;;;;;5013742;28;20022;-51
2023/08/30 07:08:09;;;;;;;13.82;6.25;;;18.90;99.90;;;;;;5012194;28;20026;-51
2023/08/30 07:10:35;;;;;;;9.13;6.72;;;19.30;99.90;;;;;;5012222;28;20026;-50
2023/08/30 07:13:00;;;;;;;9.07;6.25;;;19.60;99.90;;;;;;5012285;28;20021;-51
2023/08/30 07:15:26;;;;;;;8.57;6.68;;;20.00;99.90;;;;;;5012214;28;20565;-52
2023/08/30 07:17:52;;;;;;;7.90;6.43;;;20.30;99.90;;;;;;5012247;28;20084;-49
2023/08/30 07:20:17;;;;;;;9.10;6.22;;;20.40;99.90;;;;;;5012310;28;20117;-51
2023/08/30 07:22:43;;;;;;;9.35;7.57;;;20.50;99.90;;;;;;5012222;28;20068;-52
2023/08/30 07:25:10;;;;;;;7.47;6.82;;;20.40;99.90;;;;;;5013800;28;20029;-53
2023/08/30 07:27:36;;;;;;;7.90;6.95;;;20.20;99.90;;;;;;5012147;28;20084;-50
2023/08/30 07:30:01;;;;;;;7.60;6.80;;;20.00;99.90;;;;;;5011353;28;20030;-47
2023/08/30 07:32:27;;;;;;;11.48;7.60;;;19.70;99.90;;;;;;5012448;28;20029;-52
2023/08/30 07:34:53;;;;;;;8.85;8.05;;;19.40;99.90;;;;;;5012038;28;20025;-50
2023/08/30 07:37:20;;;;;;;8.70;7.90;;;19.20;99.90;;;;;;5012275;28;20018;-49
2023/08/30 07:39:46;;;;;;;11.30;8.15;;;19.00;99.90;;;;;;5012333;28;20018;-51
2023/08/30 07:42:11;;;;;;;8.30;7.45;;;19.00;99.90;;;;;;5012164;28;20065;-53
2023/08/30 07:44:37;;;;;;;8.63;6.93;;;19.10;99.90;;;;;;5011322;28;20034;-53
2023/08/30 07:47:03;;;;;;;12.00;7.15;;;19.40;99.90;;;;;;5011957;28;20080;-50
2023/08/30 07:49:29;;;;;;;16.83;8.95;;;19.70;99.90;;;;;;5011924;28;20033;-53
2023/08/30 07:51:54;;;;;;;9.10;7.50;;;20.00;99.90;;;;;;4999283;28;20026;-50
2023/08/30 07:54:20;;;;;;;11.57;6.80;;;20.40;99.90;;;;;;5003409;28;20279;-53
2023/08/30 07:56:45;;;;;;;7.82;7.03;;;20.70;99.90;;;;;;5027395;28;20466;-55
2023/08/30 07:59:11;;;;;;;9.25;7.93;;;20.80;99.90;;;;;;5011410;28;20025;-48
2023/08/30 08:01:36;;;;;;;13.02;7.47;;;20.50;99.90;;;;;;5012868;28;20108;-50
2023/08/30 08:04:02;;;;;;;8.30;7.53;;;20.30;99.90;;;;;;4999606;28;20041;-52
2023/08/30 08:06:28;;;;;;;9.85;7.72;;;20.10;99.90;;;;;;4994897;28;20030;-49
2023/08/30 08:08:53;;;;;;;11.25;7.85;;;19.90;99.90;;;;;;4995827;28;20210;-50
2023/08/30 08:11:19;;;;;;;9.00;7.47;;;20.10;99.90;;;;;;5005972;28;20033;-54
2023/08/30 08:13:45;;;;;;;7.97;7.13;;;20.40;99.90;;;;;;5026408;28;20101;-48
2023/08/30 08:16:10;;;;;;;7.57;6.05;;;20.80;99.90;;;;;;5011167;28;20022;-52
2023/08/30 08:18:36;;;;;;;11.82;6.47;;;21.00;99.90;;;;;;5011462;28;20451;-52
2023/08/30 08:21:02;;;;;;;8.40;5.70;;;21.10;99.90;;;;;;5011595;28;20030;-52
2023/08/30 08:23:27;;;;;;;9.40;6.28;;;21.00;99.90;;;;;;5011683;28;20026;-50
2023/08/30 08:26:00;;;;;;;9.57;6.22;;;20.70;99.90;;;;;;5010691;28;20448;-52
2023/08/30 08:28:27;;;;;;;7.85;5.88;;;20.60;99.90;;;;;;5011553;28;20025;-52
2023/08/30 08:30:52;;;;;;;7.78;5.45;;;20.40;99.90;;;;;;5010948;28;20032;-45
2023/08/30 08:33:18;;;;;;;6.85;5.32;;;20.10;99.90;;;;;;5010195;28;20116;-50
2023/08/30 08:35:44;;;;;;;5.68;5.15;;;19.80;99.90;;;;;;5010147;28;20018;-48
2023/08/30 08:38:10;;;;;;;6.07;5.47;;;19.80;99.90;;;;;;5006989;28;20046;-48
2023/08/30 08:40:39;;;;;;;7.22;6.53;;;19.80;99.90;;;;;;4996843;28;20037;-52
2023/08/30 08:43:05;;;;;;;6.47;5.63;;;19.70;99.90;;;;;;5010535;28;20041;-49
2023/08/30 08:45:35;;;;;;;16.35;7.10;;;19.70;99.90;;;;;;5010367;28;20038;-49
2023/08/30 08:48:04;;;;;;;9.80;6.18;;;19.70;99.90;;;;;;5010266;28;20095;-51
2023/08/30 08:50:29;;;;;;;7.07;6.38;;;19.60;99.90;;;;;;5011858;28;20476;-48
2023/08/30 08:52:56;;;;;;;6.03;5.43;;;19.70;99.90;;;;;;5010850;28;20045;-48
2023/08/30 08:55:22;;;;;;;5.85;5.32;;;19.90;99.90;;;;;;5012444;28;20505;-52
2023/08/30 08:57:48;;;;;;;7.85;6.43;;;20.10;99.90;;;;;;5011796;28;20580;-51
2023/08/30 09:00:16;;;;;;;8.27;6.38;;;20.40;99.90;;;;;;5010504;28;20029;-51
2023/08/30 09:02:42;;;;;;;8.25;7.40;;;20.70;99.90;;;;;;5010419;28;20026;-52
2023/08/30 09:05:08;;;;;;;9.40;6.20;;;20.80;99.90;;;;;;5010657;28;20501;-51
2023/08/30 09:07:35;;;;;;;8.35;6.13;;;20.90;99.90;;;;;;5009276;28;20408;-48
2023/08/30 09:10:01;;;;;;;7.90;6.88;;;20.90;99.90;;;;;;5009406;28;20405;-46
2023/08/30 09:12:26;;;;;;;9.20;6.72;;;20.90;99.90;;;;;;5007350;28;20029;-52
2023/08/30 09:14:55;;;;;;;8.80;6.72;;;21.10;99.90;;;;;;5009969;28;20037;-50
2023/08/30 09:17:21;;;;;;;8.40;6.90;;;21.20;99.90;;;;;;5010273;28;20120;-50
2023/08/30 09:19:47;;;;;;;9.45;7.50;;;21.40;99.90;;;;;;5011287;28;20604;-53
2023/08/30 09:22:12;;;;;;;15.25;10.70;;;21.40;99.90;;;;;;5004945;28;20022;-48
2023/08/30 09:24:39;;;;;;;19.02;13.40;;;21.30;99.90;;;;;;4993743;28;20105;-59
2023/08/30 09:27:05;;;;;;;9.45;7.72;;;21.40;99.90;;;;;;5006286;28;20026;-61
2023/08/30 09:29:31;;;;;;;8.32;7.10;;;21.30;99.90;;;;;;5023681;28;20300;-61
2023/08/30 09:31:57;;;;;;;9.93;7.53;;;21.30;99.90;;;;;;5006639;28;20422;-60
2023/08/30 09:34:25;;;;;;;7.75;6.65;;;21.40;99.90;;;;;;5028424;28;20029;-55
2023/08/30 09:36:51;;;;;;;8.23;5.65;;;21.40;99.90;;;;;;5003018;28;20397;-55
2023/08/30 09:39:17;;;;;;;6.68;6.03;;;21.60;99.90;;;;;;5032100;28;20037;-62
2023/08/30 09:41:44;;;;;;;8.02;7.22;;;22.00;99.90;;;;;;5039946;28;20038;-51
2023/08/30 09:44:14;;;;;;;10.05;6.47;;;22.20;99.90;;;;;;5008069;28;20030;-55
2023/08/30 09:46:53;;;;;;;8.00;6.28;;;22.40;99.90;;;;;;5007799;28;20022;-56
2023/08/30 09:49:21;;;;;;;6.28;5.75;;;22.30;99.90;;;;;;5037368;28;20125;-57
2023/08/30 09:51:47;;;;;;;8.32;5.47;;;22.20;99.90;;;;;;5013208;28;20037;-56
2023/08/30 09:54:18;;;;;;;6.75;6.05;;;22.10;99.90;;;;;;5024307;28;20034;-54
2023/08/30 09:56:45;;;;;;;6.32;5.03;;;22.20;99.90;;;;;;5006043;28;20552;-57
2023/08/30 09:59:15;;;;;;;8.20;5.07;;;22.30;99.90;;;;;;5013093;28;20121;-49
2023/08/30 10:01:41;;;;;;;5.95;4.43;;;22.40;99.90;;;;;;5013373;28;20033;-50
2023/08/30 10:04:10;;;;;;;8.05;5.18;;;22.30;99.90;;;;;;5013768;28;20029;-48
2023/08/30 10:06:38;;;;;;;6.20;5.60;;;22.20;99.90;;;;;;5013728;28;20026;-54
2023/08/30 10:09:05;;;;;;;5.57;5.00;;;22.10;99.90;;;;;;5013767;28;20372;-48
2023/08/30 10:11:34;;;;;;;6.90;5.15;;;22.20;99.90;;;;;;5013208;28;20034;-52
2023/08/30 10:14:00;;;;;;;5.28;4.13;;;22.00;99.90;;;;;;5013462;28;20021;-50
2023/08/30 10:16:30;;;;;;;6.07;4.15;;;22.00;99.90;;;;;;4999396;28;20505;-50
2023/08/30 10:19:14;;;;;;;6.45;4.50;;;22.20;99.90;;;;;;4993992;28;20077;-51
2023/08/30 10:21:40;;;;;;;7.72;4.45;;;22.20;99.90;;;;;;4993817;28;20494;-50
2023/08/30 10:24:09;;;;;;;6.72;4.10;;;22.00;99.90;;;;;;4995148;28;20034;-50
2023/08/30 10:26:37;;;;;;;6.45;4.18;;;22.00;99.90;;;;;;4994865;28;20041;-53
2023/08/30 10:29:04;;;;;;;5.65;4.10;;;22.10;99.90;;;;;;4977927;28;20037;-50
2023/08/30 10:31:29;;;;;;;5.80;4.03;;;22.10;99.90;;;;;;4993589;28;20026;-49
2023/08/30 10:33:56;;;;;;;4.10;3.33;;;22.30;99.90;;;;;;4995261;28;20402;-56
2023/08/30 10:36:26;;;;;;;3.22;2.85;;;22.30;99.90;;;;;;4993715;28;20113;-48
2023/08/30 10:38:55;;;;;;;3.95;3.22;;;22.50;99.90;;;;;;4993481;28;20029;-50
2023/08/30 10:41:25;;;;;;;3.17;2.63;;;22.30;99.90;;;;;;4993250;28;20027;-49
2023/08/30 10:43:52;;;;;;;4.45;3.65;;;22.40;99.90;;;;;;4993570;28;20034;-49
2023/08/30 10:46:28;;;;;;;6.05;3.42;;;22.30;99.90;;;;;;4993291;28;20026;-53
2023/08/30 10:48:54;;;;;;;3.28;2.80;;;22.20;99.90;;;;;;5003709;28;20037;-54
2023/08/30 10:51:22;;;;;;;4.82;3.50;;;22.10;99.90;;;;;;5012667;28;20402;-58
2023/08/30 10:53:58;;;;;;;4.00;2.90;;;22.00;99.90;;;;;;5012191;28;20068;-55
2023/08/30 10:56:30;;;;;;;3.15;2.88;;;22.00;99.90;;;;;;5039070;23;20041;-51
2023/08/30 10:58:57;;;;;;;3.42;3.05;;;22.00;99.90;;;;;;5051959;28;20017;-53
2023/08/30 11:01:23;;;;;;;5.75;3.17;;;21.90;99.90;;;;;;5052410;28;20031;-56
2023/08/30 11:03:50;;;;;;;6.40;2.90;;;21.90;99.90;;;;;;5035654;28;20032;-54
2023/08/30 11:06:17;;;;;;;2.80;2.58;;;21.80;99.90;;;;;;5018233;28;20432;-57
2023/08/30 11:08:43;;;;;;;2.65;2.40;;;21.90;99.90;;;;;;5034009;28;20036;-49
2023/08/30 11:11:14;;;;;;;3.95;3.08;;;21.90;99.90;;;;;;5052224;28;20046;-52
2023/08/30 11:13:40;;;;;;;3.90;2.67;;;21.90;99.90;;;;;;5052918;28;20064;-50
2023/08/30 11:16:05;;;;;;;23.60;19.75;;;22.00;99.90;;;;;;5052915;28;20049;-53
2023/08/30 11:18:36;;;;;;;3.78;3.45;;;22.00;99.90;;;;;;5034946;28;20025;-48
2023/08/30 11:21:02;;;;;;;9.35;5.55;;;22.00;99.90;;;;;;5018605;28;20032;-51
2023/08/30 11:23:28;;;;;;;3.20;2.90;;;21.90;99.90;;;;;;5035381;28;20381;-50
2023/08/30 11:25:54;;;;;;;2.90;2.60;;;21.80;99.90;;;;;;5052832;28;20083;-50
2023/08/30 11:28:25;;;;;;;3.50;2.47;;;21.70;99.90;;;;;;5034966;28;20025;-50
2023/08/30 11:30:55;;;;;;;3.72;2.80;;;21.60;99.90;;;;;;5034713;28;20036;-50
2023/08/30 11:33:21;;;;;;;4.55;2.90;;;21.50;99.90;;;;;;5019073;28;20071;-49
2023/08/30 11:35:49;;;;;;;4.18;3.15;;;21.30;99.90;;;;;;5035026;28;20381;-51
2023/08/30 11:38:15;;;;;;;4.15;3.13;;;21.10;99.90;;;;;;5018464;28;20024;-48
2023/08/30 11:40:41;;;;;;;3.63;3.13;;;20.80;99.90;;;;;;5034719;28;20029;-49
2023/08/30 11:43:07;;;;;;;4.03;3.55;;;20.60;99.90;;;;;;5052750;28;20044;-48
2023/08/30 11:45:36;;;;;;;12.07;3.22;;;20.50;99.90;;;;;;5034550;28;20021;-50
2023/08/30 11:48:02;;;;;;;4.95;3.45;;;20.20;99.90;;;;;;5034492;28;20037;-49
2023/08/30 11:50:29;;;;;;;5.28;3.65;;;20.10;99.90;;;;;;5034192;28;20496;-51
2023/08/30 11:52:55;;;;;;;3.10;2.90;;;20.10;99.90;;;;;;5034575;28;20112;-50
2023/08/30 11:55:21;;;;;;;3.90;3.25;;;20.10;99.90;;;;;;5034281;28;20025;-51
2023/08/30 11:57:50;;;;;;;3.95;3.35;;;20.10;99.90;;;;;;5052314;28;20091;-48
2023/08/30 12:00:19;;;;;;;4.45;3.17;;;20.20;99.90;;;;;;5034434;28;20057;-52
2023/08/30 12:02:46;;;;;;;3.22;2.92;;;20.20;99.90;;;;;;5017923;28;20055;-51
2023/08/30 12:05:13;;;;;;;5.35;3.05;;;20.20;99.90;;;;;;5034380;28;20029;-50
2023/08/30 12:07:40;;;;;;;5.93;3.05;;;20.30;99.90;;;;;;5052152;28;20094;-47
2023/08/30 12:10:12;;;;;;;3.55;3.25;;;20.40;99.90;;;;;;5016992;28;20033;-50
2023/08/30 12:12:43;;;;;;;2.90;2.70;;;20.60;99.90;;;;;;5051617;28;20029;-48
2023/08/30 12:15:10;;;;;;;5.32;3.75;;;20.70;99.90;;;;;;5034339;28;20032;-49
2023/08/30 12:17:36;;;;;;;5.43;3.60;;;20.90;99.90;;;;;;5033898;28;20025;-50
2023/08/30 12:20:06;;;;;;;3.17;2.97;;;21.10;99.90;;;;;;5033873;28;20106;-47
2023/08/30 12:22:41;;;;;;;4.15;3.17;;;21.20;99.90;;;;;;5033638;28;20032;-51
2023/08/30 12:25:20;;;;;;;6.60;3.05;;;21.30;99.90;;;;;;5034415;28;20029;-46
2023/08/30 12:27:46;;;;;;;7.88;3.28;;;21.40;99.90;;;;;;5033890;28;20025;-50
2023/08/30 12:30:16;;;;;;;7.53;2.72;;;21.50;99.90;;;;;;5017352;28;20484;-50
2023/08/30 12:32:42;;;;;;;3.90;3.00;;;21.50;99.90;;;;;;5033796;28;20488;-52
2023/08/30 12:35:08;;;;;;;3.22;2.85;;;21.50;99.90;;;;;;5034082;28;20570;-51
2023/08/30 12:37:34;;;;;;;3.47;2.88;;;21.50;99.90;;;;;;5033709;28;20110;-52
2023/08/30 12:40:00;;;;;;;4.57;3.00;;;21.50;99.90;;;;;;5033393;28;20048;-53
2023/08/30 12:42:26;;;;;;;7.80;3.85;;;21.60;99.90;;;;;;5033485;28;20056;-54